sensor_id;sensor_type;location;lat;lon;timestamp;pressure;altitude;pressure_sealevel;temperature;humidity
76603;BME280;65075;48.390;17.598;2023-03-14T00:01:14;98571.25;;;10.21;52.12
76603;BME280;65075;48.390;17.598;2023-03-14T00:03:40;98542.72;;;10.13;52.16
76603;BME280;65075;48.390;17.598;2023-03-14T00:06:07;98538.16;;;10.27;52.28
76603;BME280;65075;48.390;17.598;2023-03-14T00:08:33;98523.00;;;9.98;52.80
76603;BME280;65075;48.390;17.598;2023-03-14T00:11:04;98510.94;;;10.04;52.23
76603;BME280;65075;48.390;17.598;2023-03-14T00:13:30;98505.59;;;9.94;53.38
76603;BME280;65075;48.390;17.598;2023-03-14T00:16:01;98462.13;;;9.36;54.10
76603;BME280;65075;48.390;17.598;2023-03-14T00:18:27;98489.22;;;9.75;52.96
76603;BME280;65075;48.390;17.598;2023-03-14T00:20:53;98497.63;;;9.78;52.96
76603;BME280;65075;48.390;17.598;2023-03-14T00:23:18;98449.94;;;10.00;52.29
76603;BME280;65075;48.390;17.598;2023-03-14T00:25:44;98466.63;;;10.17;51.10
76603;BME280;65075;48.390;17.598;2023-03-14T00:28:11;98462.72;;;9.81;52.34
76603;BME280;65075;48.390;17.598;2023-03-14T00:30:38;98470.88;;;10.04;51.49
76603;BME280;65075;48.390;17.598;2023-03-14T00:33:03;98441.00;;;9.75;52.38
76603;BME280;65075;48.390;17.598;2023-03-14T00:35:29;98419.78;;;9.72;52.53
76603;BME280;65075;48.390;17.598;2023-03-14T00:37:54;98427.72;;;9.45;53.07
76603;BME280;65075;48.390;17.598;2023-03-14T00:40:20;98439.25;;;9.37;52.97
76603;BME280;65075;48.390;17.598;2023-03-14T00:42:45;98396.78;;;8.89;54.36
76603;BME280;65075;48.390;17.598;2023-03-14T00:45:11;98439.41;;;9.22;54.38
76603;BME280;65075;48.390;17.598;2023-03-14T00:47:37;98423.19;;;9.59;52.49
76603;BME280;65075;48.390;17.598;2023-03-14T00:50:02;98431.38;;;9.59;52.73
76603;BME280;65075;48.390;17.598;2023-03-14T00:52:28;98413.97;;;9.13;53.92
76603;BME280;65075;48.390;17.598;2023-03-14T00:54:53;98381.53;;;9.40;52.98
76603;BME280;65075;48.390;17.598;2023-03-14T00:57:19;98400.63;;;9.35;53.75
76603;BME280;65075;48.390;17.598;2023-03-14T00:59:44;98395.56;;;9.71;52.60
76603;BME280;65075;48.390;17.598;2023-03-14T01:02:10;98342.09;;;9.14;52.89
76603;BME280;65075;48.390;17.598;2023-03-14T01:04:35;98379.84;;;9.87;51.99
76603;BME280;65075;48.390;17.598;2023-03-14T01:07:03;98385.94;;;9.78;52.75
76603;BME280;65075;48.390;17.598;2023-03-14T01:09:28;98383.69;;;9.62;52.92
76603;BME280;65075;48.390;17.598;2023-03-14T01:11:54;98368.63;;;9.69;52.81
76603;BME280;65075;48.390;17.598;2023-03-14T01:14:19;98365.38;;;9.67;52.77
76603;BME280;65075;48.390;17.598;2023-03-14T01:16:45;98351.75;;;9.67;52.20
76603;BME280;65075;48.390;17.598;2023-03-14T01:19:11;98353.06;;;9.51;52.57
76603;BME280;65075;48.390;17.598;2023-03-14T01:21:37;98351.50;;;9.45;53.19
76603;BME280;65075;48.390;17.598;2023-03-14T01:24:05;98339.09;;;9.76;52.45
76603;BME280;65075;48.390;17.598;2023-03-14T01:26:33;98339.59;;;9.17;53.99
76603;BME280;65075;48.390;17.598;2023-03-14T01:28:59;98323.41;;;9.50;53.19
76603;BME280;65075;48.390;17.598;2023-03-14T01:31:25;98323.78;;;9.62;53.14
76603;BME280;65075;48.390;17.598;2023-03-14T01:33:51;98331.09;;;9.24;53.31
76603;BME280;65075;48.390;17.598;2023-03-14T01:36:17;98304.25;;;9.36;53.21
76603;BME280;65075;48.390;17.598;2023-03-14T01:38:43;98292.50;;;9.59;53.07
76603;BME280;65075;48.390;17.598;2023-03-14T01:41:18;98287.00;;;9.22;53.80
76603;BME280;65075;48.390;17.598;2023-03-14T01:43:45;98279.41;;;9.24;53.86
76603;BME280;65075;48.390;17.598;2023-03-14T01:46:17;98281.47;;;9.08;54.46
76603;BME280;65075;48.390;17.598;2023-03-14T01:49:04;98267.84;;;9.51;53.30
76603;BME280;65075;48.390;17.598;2023-03-14T01:56:53;98283.16;;;9.65;53.04
76603;BME280;65075;48.390;17.598;2023-03-14T01:59:21;98265.44;;;9.49;53.41
76603;BME280;65075;48.390;17.598;2023-03-14T02:01:49;98268.06;;;9.54;53.19
76603;BME280;65075;48.390;17.598;2023-03-14T02:04:18;98283.88;;;9.71;52.64
76603;BME280;65075;48.390;17.598;2023-03-14T02:06:51;98255.03;;;9.89;52.64
76603;BME280;65075;48.390;17.598;2023-03-14T02:09:18;98199.63;;;9.42;52.11
76603;BME280;65075;48.390;17.598;2023-03-14T02:11:44;98253.06;;;9.75;51.83
76603;BME280;65075;48.390;17.598;2023-03-14T02:14:21;98237.13;;;9.83;52.25
76603;BME280;65075;48.390;17.598;2023-03-14T02:16:52;98230.22;;;9.71;52.51
76603;BME280;65075;48.390;17.598;2023-03-14T02:19:26;98232.28;;;9.79;52.65
76603;BME280;65075;48.390;17.598;2023-03-14T02:22:09;98223.53;;;9.83;52.63
76603;BME280;65075;48.390;17.598;2023-03-14T02:24:50;98226.09;;;9.93;52.51
76603;BME280;65075;48.390;17.598;2023-03-14T02:27:21;98224.88;;;9.29;53.61
76603;BME280;65075;48.390;17.598;2023-03-14T02:29:48;98224.09;;;9.79;52.93
76603;BME280;65075;48.390;17.598;2023-03-14T02:32:16;98222.94;;;9.86;52.30
76603;BME280;65075;48.390;17.598;2023-03-14T02:34:47;98221.84;;;9.87;52.43
76603;BME280;65075;48.390;17.598;2023-03-14T02:37:18;98207.81;;;9.61;52.58
76603;BME280;65075;48.390;17.598;2023-03-14T02:39:45;98221.59;;;9.83;52.26
76603;BME280;65075;48.390;17.598;2023-03-14T02:42:13;98236.72;;;9.75;52.44
76603;BME280;65075;48.390;17.598;2023-03-14T02:45:01;98237.50;;;9.76;52.51
76603;BME280;65075;48.390;17.598;2023-03-14T02:47:59;98237.13;;;9.83;52.22
76603;BME280;65075;48.390;17.598;2023-03-14T02:50:32;98263.34;;;10.16;51.42
76603;BME280;65075;48.390;17.598;2023-03-14T02:52:59;98221.16;;;9.76;52.03
76603;BME280;65075;48.390;17.598;2023-03-14T02:55:25;98228.72;;;9.98;52.03
76603;BME280;65075;48.390;17.598;2023-03-14T02:57:52;98210.75;;;9.97;51.65
76603;BME280;65075;48.390;17.598;2023-03-14T03:00:19;98218.88;;;9.83;52.17
76603;BME280;65075;48.390;17.598;2023-03-14T03:02:45;98220.16;;;9.72;52.78
76603;BME280;65075;48.390;17.598;2023-03-14T03:05:11;98220.97;;;9.54;52.76
76603;BME280;65075;48.390;17.598;2023-03-14T03:07:37;98240.63;;;9.69;52.68
76603;BME280;65075;48.390;17.598;2023-03-14T03:10:03;98239.31;;;9.67;53.16
76603;BME280;65075;48.390;17.598;2023-03-14T03:12:28;98185.69;;;9.81;51.80
76603;BME280;65075;48.390;17.598;2023-03-14T03:14:54;98229.91;;;9.92;52.42
76603;BME280;65075;48.390;17.598;2023-03-14T03:17:19;98202.09;;;9.76;52.13
76603;BME280;65075;48.390;17.598;2023-03-14T03:19:45;98227.38;;;10.14;51.50
76603;BME280;65075;48.390;17.598;2023-03-14T03:22:11;98214.63;;;10.09;52.44
76603;BME280;65075;48.390;17.598;2023-03-14T03:24:36;98217.50;;;10.18;52.39
76603;BME280;65075;48.390;17.598;2023-03-14T03:27:02;98225.25;;;9.78;53.05
76603;BME280;65075;48.390;17.598;2023-03-14T03:29:27;98211.50;;;9.51;54.05
76603;BME280;65075;48.390;17.598;2023-03-14T03:31:53;98210.09;;;9.54;54.03
76603;BME280;65075;48.390;17.598;2023-03-14T03:34:19;98200.63;;;9.84;53.10
76603;BME280;65075;48.390;17.598;2023-03-14T03:36:44;98163.78;;;9.72;52.88
76603;BME280;65075;48.390;17.598;2023-03-14T03:39:10;98215.97;;;9.42;53.99
76603;BME280;65075;48.390;17.598;2023-03-14T03:41:35;98194.25;;;10.07;52.52
76603;BME280;65075;48.390;17.598;2023-03-14T03:44:01;98197.47;;;10.09;52.70
76603;BME280;65075;48.390;17.598;2023-03-14T03:46:26;98211.63;;;9.78;52.62
76603;BME280;65075;48.390;17.598;2023-03-14T03:48:56;98215.00;;;9.70;53.61
76603;BME280;65075;48.390;17.598;2023-03-14T03:51:23;98166.53;;;9.54;53.22
76603;BME280;65075;48.390;17.598;2023-03-14T03:53:48;98226.88;;;9.93;52.80
76603;BME280;65075;48.390;17.598;2023-03-14T03:56:16;98202.59;;;9.27;54.35
76603;BME280;65075;48.390;17.598;2023-03-14T03:58:42;98205.13;;;9.74;53.56
76603;BME280;65075;48.390;17.598;2023-03-14T04:01:08;98187.94;;;9.93;53.48
76603;BME280;65075;48.390;17.598;2023-03-14T04:03:35;98210.50;;;10.44;52.13
76603;BME280;65075;48.390;17.598;2023-03-14T04:06:06;98232.06;;;10.27;52.11
76603;BME280;65075;48.390;17.598;2023-03-14T04:08:32;98217.91;;;10.25;52.16
76603;BME280;65075;48.390;17.598;2023-03-14T04:11:00;98211.25;;;10.17;52.74
76603;BME280;65075;48.390;17.598;2023-03-14T04:13:42;98220.56;;;9.98;53.05
76603;BME280;65075;48.390;17.598;2023-03-14T04:16:19;98222.38;;;10.21;52.34
76603;BME280;65075;48.390;17.598;2023-03-14T04:18:47;98200.03;;;9.87;53.29
76603;BME280;65075;48.390;17.598;2023-03-14T04:21:16;98176.38;;;9.68;53.21
76603;BME280;65075;48.390;17.598;2023-03-14T04:23:42;98184.78;;;8.97;54.69
76603;BME280;65075;48.390;17.598;2023-03-14T04:26:10;98206.94;;;9.98;53.62
76603;BME280;65075;48.390;17.598;2023-03-14T04:28:36;98205.03;;;10.12;53.07
76603;BME280;65075;48.390;17.598;2023-03-14T04:31:17;98193.44;;;9.74;53.72
76603;BME280;65075;48.390;17.598;2023-03-14T04:33:44;98177.03;;;10.25;52.79
76603;BME280;65075;48.390;17.598;2023-03-14T04:36:10;98180.53;;;9.79;54.16
76603;BME280;65075;48.390;17.598;2023-03-14T04:38:36;98178.03;;;9.83;54.54
76603;BME280;65075;48.390;17.598;2023-03-14T04:41:02;98171.06;;;10.23;52.81
76603;BME280;65075;48.390;17.598;2023-03-14T04:43:28;98162.31;;;9.94;53.74
76603;BME280;65075;48.390;17.598;2023-03-14T04:45:55;98130.97;;;9.64;54.24
76603;BME280;65075;48.390;17.598;2023-03-14T04:48:21;98162.63;;;10.06;53.17
76603;BME280;65075;48.390;17.598;2023-03-14T04:50:47;98147.38;;;10.05;53.93
76603;BME280;65075;48.390;17.598;2023-03-14T04:53:13;98160.59;;;10.57;52.04
76603;BME280;65075;48.390;17.598;2023-03-14T04:55:39;98161.19;;;10.54;53.10
76603;BME280;65075;48.390;17.598;2023-03-14T04:58:04;98149.06;;;10.19;53.65
76603;BME280;65075;48.390;17.598;2023-03-14T05:00:30;98159.25;;;10.27;53.51
76603;BME280;65075;48.390;17.598;2023-03-14T05:02:56;98176.53;;;10.50;52.50
76603;BME280;65075;48.390;17.598;2023-03-14T05:05:22;98191.78;;;10.05;54.06
76603;BME280;65075;48.390;17.598;2023-03-14T05:07:48;98190.38;;;10.26;53.52
76603;BME280;65075;48.390;17.598;2023-03-14T05:10:14;98190.38;;;10.40;52.80
76603;BME280;65075;48.390;17.598;2023-03-14T05:12:39;98191.91;;;10.46;53.04
76603;BME280;65075;48.390;17.598;2023-03-14T05:15:05;98175.50;;;10.19;53.56
76603;BME280;65075;48.390;17.598;2023-03-14T05:17:35;98142.72;;;10.38;53.07
76603;BME280;65075;48.390;17.598;2023-03-14T05:20:02;98158.03;;;10.20;53.55
76603;BME280;65075;48.390;17.598;2023-03-14T05:22:33;98158.16;;;10.15;53.88
76603;BME280;65075;48.390;17.598;2023-03-14T05:24:58;98173.31;;;10.75;52.94
76603;BME280;65075;48.390;17.598;2023-03-14T05:27:24;98178.56;;;10.45;53.75
76603;BME280;65075;48.390;17.598;2023-03-14T05:29:50;98187.44;;;10.91;52.93
76603;BME280;65075;48.390;17.598;2023-03-14T05:32:15;98191.19;;;10.68;53.14
76603;BME280;65075;48.390;17.598;2023-03-14T05:34:41;98181.56;;;10.98;52.39
76603;BME280;65075;48.390;17.598;2023-03-14T05:37:06;98168.81;;;11.07;52.04
76603;BME280;65075;48.390;17.598;2023-03-14T05:39:32;98199.34;;;11.09;52.34
76603;BME280;65075;48.390;17.598;2023-03-14T05:41:58;98155.63;;;10.86;52.47
76603;BME280;65075;48.390;17.598;2023-03-14T05:44:23;98171.88;;;10.91;52.41
76603;BME280;65075;48.390;17.598;2023-03-14T05:46:49;98150.16;;;11.22;51.77
76603;BME280;65075;48.390;17.598;2023-03-14T05:49:15;98189.09;;;11.50;51.44
76603;BME280;65075;48.390;17.598;2023-03-14T05:51:40;98151.25;;;10.85;52.53
76603;BME280;65075;48.390;17.598;2023-03-14T05:54:06;98198.03;;;11.42;51.75
76603;BME280;65075;48.390;17.598;2023-03-14T05:56:33;98193.47;;;11.87;50.92
76603;BME280;65075;48.390;17.598;2023-03-14T05:58:58;98207.06;;;11.78;51.50
76603;BME280;65075;48.390;17.598;2023-03-14T06:01:27;98203.22;;;12.10;49.69
76603;BME280;65075;48.390;17.598;2023-03-14T06:03:52;98162.31;;;11.16;51.99
76603;BME280;65075;48.390;17.598;2023-03-14T06:06:18;98201.69;;;11.37;52.36
76603;BME280;65075;48.390;17.598;2023-03-14T06:08:45;98198.56;;;10.67;54.61
76603;BME280;65075;48.390;17.598;2023-03-14T06:11:18;98217.03;;;10.11;55.97
76603;BME280;65075;48.390;17.598;2023-03-14T06:13:44;98202.84;;;9.82;56.41
76603;BME280;65075;48.390;17.598;2023-03-14T06:16:10;98249.50;;;10.85;54.72
76603;BME280;65075;48.390;17.598;2023-03-14T06:18:35;98251.88;;;9.82;57.47
76603;BME280;65075;48.390;17.598;2023-03-14T06:21:01;98247.00;;;10.29;56.18
76603;BME280;65075;48.390;17.598;2023-03-14T06:23:26;98236.69;;;10.13;57.14
76603;BME280;65075;48.390;17.598;2023-03-14T06:25:52;98219.78;;;10.70;55.87
76603;BME280;65075;48.390;17.598;2023-03-14T06:28:18;98223.00;;;10.45;56.59
76603;BME280;65075;48.390;17.598;2023-03-14T06:30:43;98231.78;;;11.60;53.69
76603;BME280;65075;48.390;17.598;2023-03-14T06:33:09;98236.09;;;11.74;53.18
76603;BME280;65075;48.390;17.598;2023-03-14T06:35:35;98239.59;;;11.88;52.21
76603;BME280;65075;48.390;17.598;2023-03-14T06:38:03;98258.78;;;11.75;53.47
76603;BME280;65075;48.390;17.598;2023-03-14T06:40:29;98249.91;;;11.56;53.34
76603;BME280;65075;48.390;17.598;2023-03-14T06:42:55;98234.56;;;11.68;52.74
76603;BME280;65075;48.390;17.598;2023-03-14T06:45:21;98252.13;;;10.63;56.40
76603;BME280;65075;48.390;17.598;2023-03-14T06:47:49;98259.69;;;11.70;52.40
76603;BME280;65075;48.390;17.598;2023-03-14T06:50:15;98269.66;;;11.39;54.78
76603;BME280;65075;48.390;17.598;2023-03-14T06:52:40;98260.69;;;12.41;50.84
76603;BME280;65075;48.390;17.598;2023-03-14T06:55:11;98259.06;;;14.35;47.58
76603;BME280;65075;48.390;17.598;2023-03-14T06:57:36;98262.66;;;15.40;44.53
76603;BME280;65075;48.390;17.598;2023-03-14T07:00:03;98255.81;;;12.60;51.36
76603;BME280;65075;48.390;17.598;2023-03-14T07:02:29;98275.34;;;13.63;49.64
76603;BME280;65075;48.390;17.598;2023-03-14T07:04:54;98277.28;;;13.80;49.49
76603;BME280;65075;48.390;17.598;2023-03-14T07:07:20;98284.56;;;14.90;45.44
76603;BME280;65075;48.390;17.598;2023-03-14T07:09:48;98275.84;;;15.26;44.53
76603;BME280;65075;48.390;17.598;2023-03-14T07:12:14;98279.25;;;15.53;43.86
76603;BME280;65075;48.390;17.598;2023-03-14T07:14:39;98277.69;;;15.93;42.68
76603;BME280;65075;48.390;17.598;2023-03-14T07:17:06;98259.78;;;15.87;42.40
76603;BME280;65075;48.390;17.598;2023-03-14T07:19:34;98282.94;;;14.00;46.39
76603;BME280;65075;48.390;17.598;2023-03-14T07:21:59;98292.03;;;14.73;45.55
76603;BME280;65075;48.390;17.598;2023-03-14T07:24:25;98272.25;;;13.56;47.64
76603;BME280;65075;48.390;17.598;2023-03-14T07:26:50;98290.78;;;15.46;43.71
76603;BME280;65075;48.390;17.598;2023-03-14T07:29:16;98299.56;;;15.89;42.29
76603;BME280;65075;48.390;17.598;2023-03-14T07:31:41;98287.09;;;15.92;41.87
76603;BME280;65075;48.390;17.598;2023-03-14T07:34:07;98284.28;;;15.51;43.22
76603;BME280;65075;48.390;17.598;2023-03-14T07:36:33;98297.47;;;14.09;45.76
76603;BME280;65075;48.390;17.598;2023-03-14T07:38:58;98298.47;;;12.61;49.73
76603;BME280;65075;48.390;17.598;2023-03-14T07:41:24;98288.44;;;12.03;51.77
76603;BME280;65075;48.390;17.598;2023-03-14T07:43:49;98250.03;;;11.37;53.44
76603;BME280;65075;48.390;17.598;2023-03-14T07:46:17;98273.41;;;11.92;53.02
76603;BME280;65075;48.390;17.598;2023-03-14T07:48:43;98250.53;;;12.33;52.04
76603;BME280;65075;48.390;17.598;2023-03-14T07:51:09;98265.81;;;14.93;45.88
76603;BME280;65075;48.390;17.598;2023-03-14T07:53:34;98276.06;;;14.75;47.60
76603;BME280;65075;48.390;17.598;2023-03-14T07:56:00;98285.28;;;15.46;45.14
76603;BME280;65075;48.390;17.598;2023-03-14T07:58:26;98282.75;;;16.77;42.08
76603;BME280;65075;48.390;17.598;2023-03-14T08:00:52;98290.00;;;18.30;38.26
76603;BME280;65075;48.390;17.598;2023-03-14T08:03:18;98272.22;;;16.46;42.33
76603;BME280;65075;48.390;17.598;2023-03-14T08:05:47;98306.81;;;14.43;46.99
76603;BME280;65075;48.390;17.598;2023-03-14T08:08:13;98294.38;;;14.11;48.19
76603;BME280;65075;48.390;17.598;2023-03-14T08:10:39;98295.34;;;14.15;49.04
76603;BME280;65075;48.390;17.598;2023-03-14T08:13:04;98283.03;;;15.48;46.02
76603;BME280;65075;48.390;17.598;2023-03-14T08:15:33;98286.00;;;16.05;44.33
76603;BME280;65075;48.390;17.598;2023-03-14T08:18:03;98292.03;;;13.36;50.26
76603;BME280;65075;48.390;17.598;2023-03-14T08:20:29;98294.66;;;15.07;46.96
76603;BME280;65075;48.390;17.598;2023-03-14T08:22:59;98278.22;;;14.61;47.63
76603;BME280;65075;48.390;17.598;2023-03-14T08:25:27;98265.13;;;16.04;44.58
76603;BME280;65075;48.390;17.598;2023-03-14T08:27:53;98268.63;;;14.67;47.84
76603;BME280;65075;48.390;17.598;2023-03-14T08:30:20;98274.47;;;15.70;45.70
76603;BME280;65075;48.390;17.598;2023-03-14T08:32:46;98249.84;;;15.44;45.92
76603;BME280;65075;48.390;17.598;2023-03-14T08:35:12;98287.75;;;14.29;49.40
76603;BME280;65075;48.390;17.598;2023-03-14T08:37:38;98265.84;;;13.86;50.34
76603;BME280;65075;48.390;17.598;2023-03-14T08:40:08;98260.91;;;15.07;48.06
76603;BME280;65075;48.390;17.598;2023-03-14T08:42:36;98254.63;;;15.85;45.90
76603;BME280;65075;48.390;17.598;2023-03-14T08:45:02;98254.44;;;15.40;47.75
76603;BME280;65075;48.390;17.598;2023-03-14T08:47:29;98256.63;;;15.97;46.94
76603;BME280;65075;48.390;17.598;2023-03-14T08:49:54;98246.34;;;15.65;47.43
76603;BME280;65075;48.390;17.598;2023-03-14T08:52:20;98244.44;;;14.69;49.78
76603;BME280;65075;48.390;17.598;2023-03-14T08:54:46;98254.31;;;14.99;48.83
76603;BME280;65075;48.390;17.598;2023-03-14T08:57:11;98238.75;;;14.74;49.19
76603;BME280;65075;48.390;17.598;2023-03-14T08:59:37;98242.25;;;15.21;49.01
76603;BME280;65075;48.390;17.598;2023-03-14T09:02:03;98234.22;;;15.07;49.18
76603;BME280;65075;48.390;17.598;2023-03-14T09:04:32;98217.84;;;15.90;47.34
76603;BME280;65075;48.390;17.598;2023-03-14T09:06:59;98226.34;;;15.35;48.39
76603;BME280;65075;48.390;17.598;2023-03-14T09:09:25;98232.88;;;15.51;48.56
76603;BME280;65075;48.390;17.598;2023-03-14T09:11:56;98216.84;;;16.27;47.14
76603;BME280;65075;48.390;17.598;2023-03-14T09:14:24;98222.41;;;16.07;46.91
76603;BME280;65075;48.390;17.598;2023-03-14T09:16:50;98206.44;;;16.00;47.72
76603;BME280;65075;48.390;17.598;2023-03-14T09:19:16;98187.78;;;15.23;49.57
76603;BME280;65075;48.390;17.598;2023-03-14T09:21:41;98217.31;;;15.96;48.71
76603;BME280;65075;48.390;17.598;2023-03-14T09:24:07;98240.47;;;16.61;47.04
76603;BME280;65075;48.390;17.598;2023-03-14T09:26:32;98242.84;;;17.32;46.32
76603;BME280;65075;48.390;17.598;2023-03-14T09:28:58;98228.38;;;17.10;45.32
76603;BME280;65075;48.390;17.598;2023-03-14T09:31:24;98233.78;;;16.95;46.34
76603;BME280;65075;48.390;17.598;2023-03-14T09:33:49;98237.75;;;17.70;44.13
76603;BME280;65075;48.390;17.598;2023-03-14T09:36:15;98241.91;;;17.28;46.00
76603;BME280;65075;48.390;17.598;2023-03-14T09:38:41;98235.25;;;17.04;46.69
76603;BME280;65075;48.390;17.598;2023-03-14T09:41:21;98233.44;;;17.08;46.17
76603;BME280;65075;48.390;17.598;2023-03-14T09:44:05;98214.34;;;16.34;49.80
76603;BME280;65075;48.390;17.598;2023-03-14T09:46:36;98217.63;;;17.69;45.98
76603;BME280;65075;48.390;17.598;2023-03-14T09:49:20;98201.44;;;17.96;45.37
76603;BME280;65075;48.390;17.598;2023-03-14T09:51:54;98206.69;;;18.56;43.42
76603;BME280;65075;48.390;17.598;2023-03-14T09:54:34;98234.44;;;16.92;47.38
76603;BME280;65075;48.390;17.598;2023-03-14T09:57:02;98233.69;;;17.80;44.93
76603;BME280;65075;48.390;17.598;2023-03-14T09:59:29;98235.69;;;16.37;49.42
76603;BME280;65075;48.390;17.598;2023-03-14T10:02:00;98222.28;;;16.81;47.08
76603;BME280;65075;48.390;17.598;2023-03-14T10:04:28;98226.44;;;16.09;48.79
76603;BME280;65075;48.390;17.598;2023-03-14T10:06:55;98238.25;;;17.24;47.01
76603;BME280;65075;48.390;17.598;2023-03-14T10:09:23;98188.16;;;17.86;44.89
76603;BME280;65075;48.390;17.598;2023-03-14T10:11:57;98160.28;;;16.99;46.55
76603;BME280;65075;48.390;17.598;2023-03-14T10:14:34;98234.19;;;17.45;45.74
76603;BME280;65075;48.390;17.598;2023-03-14T10:17:06;98212.81;;;16.25;49.26
76603;BME280;65075;48.390;17.598;2023-03-14T10:19:32;98212.28;;;16.31;48.00
76603;BME280;65075;48.390;17.598;2023-03-14T10:22:05;98216.72;;;16.24;49.76
76603;BME280;65075;48.390;17.598;2023-03-14T10:24:46;98203.56;;;16.98;47.30
76603;BME280;65075;48.390;17.598;2023-03-14T10:27:21;98206.28;;;18.42;44.10
76603;BME280;65075;48.390;17.598;2023-03-14T10:30:26;98191.03;;;17.89;45.54
76603;BME280;65075;48.390;17.598;2023-03-14T10:32:52;98172.00;;;16.72;48.03
76603;BME280;65075;48.390;17.598;2023-03-14T10:35:22;98163.03;;;16.63;48.62
76603;BME280;65075;48.390;17.598;2023-03-14T10:37:57;98194.28;;;17.03;47.59
76603;BME280;65075;48.390;17.598;2023-03-14T10:40:32;98179.16;;;17.49;46.19
76603;BME280;65075;48.390;17.598;2023-03-14T10:43:03;98201.56;;;17.47;46.15
76603;BME280;65075;48.390;17.598;2023-03-14T10:45:39;98189.19;;;16.93;47.27
76603;BME280;65075;48.390;17.598;2023-03-14T10:50:55;98196.31;;;16.57;47.72
76603;BME280;65075;48.390;17.598;2023-03-14T10:53:22;98180.16;;;16.35;47.78
76603;BME280;65075;48.390;17.598;2023-03-14T10:55:48;98190.78;;;17.18;46.87
76603;BME280;65075;48.390;17.598;2023-03-14T10:58:28;98210.72;;;18.31;45.19
76603;BME280;65075;48.390;17.598;2023-03-14T11:03:56;98199.25;;;17.61;46.63
76603;BME280;65075;48.390;17.598;2023-03-14T11:13:15;98187.69;;;19.87;40.54
76603;BME280;65075;48.390;17.598;2023-03-14T11:15:23;98188.50;;;18.86;42.51
76603;BME280;65075;48.390;17.598;2023-03-14T11:20:55;98189.66;;;19.17;42.56
76603;BME280;65075;48.390;17.598;2023-03-14T11:23:37;98190.69;;;19.43;41.31
76603;BME280;65075;48.390;17.598;2023-03-14T11:26:40;98166.78;;;19.89;40.18
76603;BME280;65075;48.390;17.598;2023-03-14T11:31:46;98171.59;;;18.88;41.31
76603;BME280;65075;48.390;17.598;2023-03-14T11:39:51;98146.22;;;15.86;48.89
76603;BME280;65075;48.390;17.598;2023-03-14T11:42:21;98136.56;;;15.39;48.88
76603;BME280;65075;48.390;17.598;2023-03-14T11:44:49;98157.84;;;16.49;47.37
76603;BME280;65075;48.390;17.598;2023-03-14T11:47:37;98151.09;;;16.83;45.78
76603;BME280;65075;48.390;17.598;2023-03-14T11:50:42;98155.91;;;16.62;45.95
76603;BME280;65075;48.390;17.598;2023-03-14T11:53:14;98139.09;;;17.27;44.16
76603;BME280;65075;48.390;17.598;2023-03-14T11:55:43;98130.78;;;16.75;45.10
76603;BME280;65075;48.390;17.598;2023-03-14T11:58:17;98139.91;;;15.44;47.99
76603;BME280;65075;48.390;17.598;2023-03-14T12:00:48;98140.00;;;15.77;48.33
76603;BME280;65075;48.390;17.598;2023-03-14T12:03:34;98152.44;;;15.13;49.43
76603;BME280;65075;48.390;17.598;2023-03-14T12:06:28;98132.81;;;15.64;47.97
76603;BME280;65075;48.390;17.598;2023-03-14T12:09:08;98117.47;;;15.42;47.81
76603;BME280;65075;48.390;17.598;2023-03-14T12:11:58;98127.00;;;15.66;47.87
76603;BME280;65075;48.390;17.598;2023-03-14T12:14:29;98133.66;;;16.79;45.99
76603;BME280;65075;48.390;17.598;2023-03-14T12:19:32;98126.72;;;15.59;49.76
76603;BME280;65075;48.390;17.598;2023-03-14T12:22:08;98140.16;;;16.38;49.78
76603;BME280;65075;48.390;17.598;2023-03-14T12:24:38;98135.31;;;15.90;51.83
76603;BME280;65075;48.390;17.598;2023-03-14T12:30:38;98127.44;;;15.68;52.28
76603;BME280;65075;48.390;17.598;2023-03-14T12:33:29;98131.41;;;15.58;53.82
76603;BME280;65075;48.390;17.598;2023-03-14T12:36:00;98122.22;;;15.33;55.40
76603;BME280;65075;48.390;17.598;2023-03-14T12:43:34;98142.28;;;18.09;49.11
76603;BME280;65075;48.390;17.598;2023-03-14T12:48:32;98141.75;;;15.40;58.53
76603;BME280;65075;48.390;17.598;2023-03-14T12:51:04;98135.06;;;16.28;56.55
76603;BME280;65075;48.390;17.598;2023-03-14T13:07:29;98166.69;;;16.54;54.00
76603;BME280;65075;48.390;17.598;2023-03-14T13:10:03;98169.75;;;14.46;59.97
76603;BME280;65075;48.390;17.598;2023-03-14T13:12:38;98141.47;;;13.99;62.05
76603;BME280;65075;48.390;17.598;2023-03-14T13:15:16;98157.22;;;14.66;58.78
76603;BME280;65075;48.390;17.598;2023-03-14T13:17:44;98146.31;;;13.94;61.19
76603;BME280;65075;48.390;17.598;2023-03-14T13:20:18;98147.34;;;13.29;60.92
76603;BME280;65075;48.390;17.598;2023-03-14T13:22:47;98144.06;;;13.78;60.25
76603;BME280;65075;48.390;17.598;2023-03-14T13:25:13;98150.00;;;14.06;59.55
76603;BME280;65075;48.390;17.598;2023-03-14T13:27:41;98155.50;;;14.53;57.84
76603;BME280;65075;48.390;17.598;2023-03-14T13:30:17;98162.34;;;14.47;58.25
76603;BME280;65075;48.390;17.598;2023-03-14T13:32:44;98159.47;;;14.72;57.82
76603;BME280;65075;48.390;17.598;2023-03-14T13:35:16;98174.22;;;13.87;60.00
76603;BME280;65075;48.390;17.598;2023-03-14T13:37:41;98168.09;;;13.90;60.11
76603;BME280;65075;48.390;17.598;2023-03-14T13:40:31;98181.44;;;15.02;57.41
76603;BME280;65075;48.390;17.598;2023-03-14T13:45:49;98164.94;;;14.35;58.94
76603;BME280;65075;48.390;17.598;2023-03-14T13:48:15;98159.56;;;14.84;58.38
76603;BME280;65075;48.390;17.598;2023-03-14T13:50:50;98157.53;;;14.35;59.14
76603;BME280;65075;48.390;17.598;2023-03-14T13:53:16;98177.91;;;14.93;57.89
76603;BME280;65075;48.390;17.598;2023-03-14T13:55:42;98167.81;;;15.34;57.46
76603;BME280;65075;48.390;17.598;2023-03-14T13:58:28;98172.63;;;15.17;57.35
76603;BME280;65075;48.390;17.598;2023-03-14T14:01:14;98193.13;;;14.90;58.98